createdAt,value
2023-05-09T00:00:11.288Z,2.38
2023-05-09T00:03:14.480Z,2.03
2023-05-09T00:06:17.991Z,2.03
2023-05-09T00:09:21.092Z,2.10
2023-05-09T00:12:24.465Z,2.35
2023-05-09T00:15:29.407Z,2.20
2023-05-09T00:18:42.672Z,2.13
2023-05-09T00:21:49.981Z,2.95
2023-05-09T00:24:53.060Z,1.63
2023-05-09T00:27:55.934Z,2.17
2023-05-09T00:30:58.283Z,1.88
2023-05-09T00:34:00.788Z,2.85
2023-05-09T00:37:04.152Z,2.88
2023-05-09T00:40:07.719Z,1.83
2023-05-09T00:43:09.889Z,1.55
2023-05-09T00:46:12.363Z,2.20
2023-05-09T00:49:15.977Z,2.45
2023-05-09T00:52:23.552Z,1.90
2023-05-09T00:55:26.702Z,1.75
2023-05-09T00:58:30.256Z,2.95
2023-05-09T01:01:32.651Z,1.98
2023-05-09T01:04:35.341Z,2.45
2023-05-09T01:08:08.682Z,2.35
2023-05-09T01:11:16.400Z,1.90
2023-05-09T01:14:37.785Z,2.00
2023-05-09T01:17:58.038Z,2.03
2023-05-09T01:21:11.361Z,2.28
2023-05-09T01:24:22.758Z,2.40
2023-05-09T01:27:39.555Z,1.80
2023-05-09T01:30:46.379Z,1.50
2023-05-09T01:33:55.415Z,2.00
2023-05-09T01:37:01.329Z,2.50
2023-05-09T01:40:08.705Z,2.67
2023-05-09T01:43:11.632Z,3.13
2023-05-09T01:46:17.261Z,2.03
2023-05-09T01:49:20.697Z,3.17
2023-05-09T01:52:24.272Z,2.47
2023-05-09T01:55:30.959Z,1.70
2023-05-09T01:58:34.711Z,2.15
2023-05-09T02:01:37.718Z,1.33
2023-05-09T02:04:49.188Z,1.92
2023-05-09T02:07:51.897Z,1.35
2023-05-09T02:10:54.093Z,1.60
2023-05-09T02:13:56.270Z,1.58
2023-05-09T02:17:06.389Z,1.80
2023-05-09T02:20:12.414Z,1.63
2023-05-09T02:23:14.651Z,1.73
2023-05-09T02:26:17.541Z,1.70
2023-05-09T02:29:22.124Z,1.70
2023-05-09T02:38:32.365Z,1.73
2023-05-09T02:41:34.633Z,1.40
2023-05-09T02:44:37.306Z,1.48
2023-05-09T02:47:40.237Z,1.83
2023-05-09T02:50:46.029Z,1.52
2023-05-09T02:53:48.188Z,1.30
2023-05-09T02:56:50.504Z,1.80
2023-05-09T02:59:52.897Z,1.05
2023-05-09T03:02:56.126Z,1.02
2023-05-09T03:05:58.410Z,0.98
2023-05-09T03:09:00.666Z,0.80
2023-05-09T03:12:03.971Z,1.35
2023-05-09T03:15:07.648Z,0.60
2023-05-09T03:18:10.024Z,1.35
2023-05-09T03:21:12.820Z,2.15
2023-05-09T03:24:14.910Z,1.00
2023-05-09T03:27:16.953Z,0.98
2023-05-09T03:30:19.326Z,0.80
2023-05-09T03:33:21.567Z,1.00
2023-05-09T03:36:23.729Z,1.30
2023-05-09T03:39:26.036Z,1.27
2023-05-09T03:42:28.166Z,1.13
2023-05-09T03:45:30.727Z,1.42
2023-05-09T03:48:33.164Z,1.00
2023-05-09T03:51:35.387Z,1.40
2023-05-09T03:54:37.480Z,1.20
2023-05-09T03:57:39.882Z,1.60
2023-05-09T04:00:45.041Z,1.77
2023-05-09T04:03:47.471Z,1.52
2023-05-09T04:06:49.536Z,1.00
2023-05-09T04:09:51.755Z,1.40
2023-05-09T04:12:53.836Z,1.58
2023-05-09T04:16:02.294Z,1.42
2023-05-09T04:19:04.545Z,0.95
2023-05-09T04:22:06.950Z,1.13
2023-05-09T04:25:12.677Z,1.10
2023-05-09T04:28:14.916Z,1.30
2023-05-09T04:31:17.666Z,1.55
2023-05-09T04:34:19.940Z,1.40
2023-05-09T04:37:22.087Z,1.67
2023-05-09T04:40:26.179Z,1.35
2023-05-09T04:43:30.029Z,0.88
2023-05-09T04:46:32.574Z,2.05
2023-05-09T04:49:34.958Z,2.00
2023-05-09T04:52:37.239Z,1.52
2023-05-09T04:55:39.366Z,1.40
2023-05-09T04:58:41.522Z,1.40
2023-05-09T05:01:44.426Z,1.35
2023-05-09T05:04:46.595Z,1.60
2023-05-09T05:07:49.007Z,1.23
2023-05-09T05:10:51.524Z,1.67
2023-05-09T05:13:53.715Z,1.55
2023-05-09T05:16:55.930Z,1.23
2023-05-09T05:19:58.178Z,1.63
2023-05-09T05:23:00.874Z,1.42
2023-05-09T05:26:03.960Z,2.55
2023-05-09T05:29:06.258Z,1.88
2023-05-09T05:32:09.327Z,0.95
2023-05-09T05:35:12.433Z,1.95
2023-05-09T05:38:14.618Z,4.15
2023-05-09T05:41:16.647Z,1.15
2023-05-09T05:44:18.733Z,1.10
2023-05-09T05:47:21.020Z,1.98
2023-05-09T05:50:23.772Z,1.58
2023-05-09T05:53:26.109Z,1.40
2023-05-09T05:56:28.295Z,1.50
2023-05-09T05:59:30.384Z,1.50
2023-05-09T06:02:32.638Z,1.88
2023-05-09T06:05:35.291Z,2.95
2023-05-09T06:08:37.466Z,1.33
2023-05-09T06:11:39.821Z,1.25
2023-05-09T06:14:41.797Z,1.80
2023-05-09T06:17:44.518Z,1.90
2023-05-09T06:20:47.593Z,1.70
2023-05-09T06:24:05.105Z,1.95
2023-05-09T06:27:11.830Z,2.20
2023-05-09T06:30:25.830Z,2.25
2023-05-09T06:33:29.145Z,2.00
2023-05-09T06:36:32.475Z,1.70
2023-05-09T06:39:34.705Z,1.80
2023-05-09T06:42:36.879Z,2.17
2023-05-09T06:45:41.158Z,2.63
2023-05-09T06:48:43.532Z,2.87
2023-05-09T06:51:46.028Z,1.75
2023-05-09T06:54:48.376Z,2.22
2023-05-09T06:57:50.829Z,1.95
2023-05-09T07:00:53.538Z,2.13
2023-05-09T07:03:55.846Z,2.25
2023-05-09T07:07:00.340Z,2.28
2023-05-09T07:10:11.366Z,3.10
2023-05-09T07:13:14.843Z,2.00
2023-05-09T07:16:18.643Z,3.60
2023-05-09T07:19:21.819Z,3.15
2023-05-09T07:22:24.391Z,1.92
2023-05-09T07:25:26.962Z,2.05
2023-05-09T07:28:29.080Z,1.95
2023-05-09T07:31:31.417Z,2.60
2023-05-09T07:34:33.619Z,2.15
2023-05-09T07:37:36.092Z,3.58
2023-05-09T07:40:38.908Z,2.72
2023-05-09T07:43:41.247Z,2.67
2023-05-09T07:46:43.432Z,2.40
2023-05-09T07:49:46.831Z,2.40
2023-05-09T07:52:49.438Z,2.17
2023-05-09T07:55:53.038Z,2.00
2023-05-09T07:58:55.879Z,3.25
2023-05-09T08:01:58.397Z,3.47
2023-05-09T08:05:00.910Z,2.90
2023-05-09T08:08:03.613Z,4.97
2023-05-09T08:11:06.217Z,2.05
2023-05-09T08:14:15.664Z,2.42
2023-05-09T08:17:18.075Z,2.85
2023-05-09T08:20:20.233Z,1.83
2023-05-09T08:23:22.326Z,3.38
2023-05-09T08:26:24.502Z,1.95
2023-05-09T08:29:26.642Z,3.28
2023-05-09T08:32:29.049Z,2.13
2023-05-09T08:35:31.342Z,2.35
2023-05-09T08:38:33.917Z,3.33
2023-05-09T08:41:37.054Z,2.70
2023-05-09T08:44:40.363Z,1.80
2023-05-09T08:47:42.970Z,2.05
2023-05-09T08:50:45.524Z,2.25
2023-05-09T08:53:48.134Z,2.40
2023-05-09T08:56:51.220Z,2.60
2023-05-09T08:59:53.924Z,3.17
2023-05-09T09:03:04.112Z,2.33
2023-05-09T09:06:09.572Z,2.60
2023-05-09T09:09:13.908Z,2.47
2023-05-09T09:12:17.701Z,2.17
2023-05-09T09:15:22.690Z,2.13
2023-05-09T09:18:30.307Z,3.28
2023-05-09T09:21:33.731Z,2.20
2023-05-09T09:24:36.337Z,2.28
2023-05-09T09:27:38.602Z,2.20
2023-05-09T09:30:49.373Z,2.72
2023-05-09T09:33:51.972Z,2.10
2023-05-09T09:36:54.234Z,2.92
2023-05-09T09:39:58.796Z,2.50
2023-05-09T09:43:07.386Z,2.28
2023-05-09T09:46:09.999Z,1.70
2023-05-09T09:49:17.721Z,1.80
2023-05-09T09:52:27.047Z,2.00
2023-05-09T09:55:29.859Z,2.05
2023-05-09T09:58:32.126Z,2.13
2023-05-09T10:01:34.161Z,1.80
2023-05-09T10:04:39.033Z,1.42
2023-05-09T10:07:41.237Z,2.58
2023-05-09T10:10:43.816Z,1.95
2023-05-09T10:13:46.548Z,2.35
2023-05-09T10:16:49.884Z,2.20
2023-05-09T10:19:54.090Z,2.33
2023-05-09T10:23:01.567Z,2.20
2023-05-09T10:26:12.493Z,2.15
2023-05-09T10:29:22.998Z,2.08
2023-05-09T10:32:31.857Z,1.98
2023-05-09T10:35:40.187Z,2.83
2023-05-09T10:38:43.002Z,3.00
2023-05-09T10:41:49.872Z,2.65
2023-05-09T10:44:53.895Z,2.92
2023-05-09T10:47:57.112Z,2.20
2023-05-09T10:51:04.080Z,2.35
2023-05-09T10:54:15.869Z,3.20
2023-05-09T10:57:20.992Z,3.20
2023-05-09T11:00:25.313Z,2.83
2023-05-09T11:03:29.290Z,2.35
2023-05-09T11:06:51.220Z,2.13
2023-05-09T11:10:07.667Z,2.40
2023-05-09T11:13:10.024Z,1.83
2023-05-09T11:16:12.759Z,3.47
2023-05-09T11:19:38.372Z,2.42
2023-05-09T11:22:43.073Z,2.00
2023-05-09T11:25:49.872Z,1.83
2023-05-09T11:28:54.298Z,1.80
2023-05-09T11:32:07.954Z,1.70
2023-05-09T11:35:16.239Z,1.67
2023-05-09T11:38:22.947Z,2.17
2023-05-09T11:41:27.595Z,2.72
2023-05-09T11:44:33.592Z,3.13
2023-05-09T11:47:38.511Z,1.77
2023-05-09T11:50:43.137Z,2.22
2023-05-09T11:53:49.786Z,1.90
2023-05-09T11:56:51.917Z,1.45
2023-05-09T11:59:54.208Z,1.95
2023-05-09T12:02:57.844Z,1.50
2023-05-09T12:06:00.436Z,1.27
2023-05-09T12:09:02.970Z,1.63
2023-05-09T12:12:11.974Z,2.47
2023-05-09T12:15:16.161Z,1.85
2023-05-09T12:18:18.710Z,2.10
2023-05-09T12:21:48.732Z,1.73
2023-05-09T12:24:52.209Z,1.98
2023-05-09T12:27:54.764Z,1.60
2023-05-09T12:30:57.344Z,1.30
2023-05-09T12:34:01.886Z,2.35
2023-05-09T12:37:04.070Z,2.00
2023-05-09T12:40:15.891Z,2.13
2023-05-09T12:43:24.815Z,1.90
2023-05-09T12:46:27.650Z,2.78
2023-05-09T12:49:31.459Z,2.58
2023-05-09T12:52:36.765Z,2.80
2023-05-09T12:55:42.419Z,3.85
2023-05-09T12:58:55.009Z,2.15
2023-05-09T13:01:59.711Z,2.42
2023-05-09T13:05:20.784Z,2.15
2023-05-09T13:08:23.282Z,3.60
2023-05-09T13:11:26.034Z,3.17
2023-05-09T13:14:28.594Z,2.22
2023-05-09T13:17:30.777Z,2.85
2023-05-09T13:20:32.961Z,1.58
2023-05-09T13:23:35.092Z,1.52
2023-05-09T13:26:37.217Z,2.05
2023-05-09T13:29:39.412Z,1.92
2023-05-09T13:32:41.576Z,1.85
2023-05-09T13:35:43.690Z,2.03
2023-05-09T13:38:46.237Z,1.52
2023-05-09T13:41:48.774Z,2.55
2023-05-09T13:44:50.875Z,1.90
2023-05-09T13:47:53.168Z,2.78
2023-05-09T13:50:57.606Z,2.03
2023-05-09T13:53:59.866Z,2.50
2023-05-09T13:57:03.730Z,2.33
2023-05-09T14:00:07.141Z,2.10
2023-05-09T14:03:09.453Z,2.33
2023-05-09T14:06:15.468Z,2.13
2023-05-09T14:09:17.875Z,1.42
2023-05-09T14:12:20.310Z,1.60
2023-05-09T14:15:22.372Z,2.60
2023-05-09T14:18:24.774Z,1.70
2023-05-09T14:21:27.335Z,2.25
2023-05-09T14:24:30.996Z,1.98
2023-05-09T14:27:36.970Z,1.88
2023-05-09T14:30:40.406Z,1.35
2023-05-09T14:33:44.051Z,1.60
2023-05-09T14:36:47.656Z,1.10
2023-05-09T14:39:51.091Z,2.42
2023-05-09T14:42:53.194Z,1.77
2023-05-09T14:45:55.646Z,1.33
2023-05-09T14:49:04.032Z,4.13
2023-05-09T14:52:06.327Z,1.60
2023-05-09T14:55:08.706Z,1.30
2023-05-09T14:58:13.494Z,2.45
2023-05-09T15:01:16.256Z,1.67
2023-05-09T15:04:36.004Z,1.10
2023-05-09T15:07:38.830Z,2.42
2023-05-09T15:10:41.864Z,1.70
2023-05-09T15:13:43.978Z,1.67
2023-05-09T15:16:47.052Z,2.65
2023-05-09T15:19:49.467Z,1.52
2023-05-09T15:22:51.678Z,1.80
2023-05-09T15:25:56.435Z,1.65
2023-05-09T15:29:01.275Z,2.03
2023-05-09T15:32:06.567Z,1.95
2023-05-09T15:35:09.185Z,2.00
2023-05-09T15:38:12.287Z,2.15
2023-05-09T15:41:15.543Z,1.85
2023-05-09T15:44:17.957Z,3.70
2023-05-09T15:47:21.248Z,1.77
2023-05-09T15:50:23.554Z,2.10
2023-05-09T15:53:27.670Z,2.97
2023-05-09T15:56:29.700Z,2.72
2023-05-09T15:59:31.915Z,2.28
2023-05-09T16:02:34.313Z,1.77
2023-05-09T16:05:36.382Z,1.45
2023-05-09T16:08:38.523Z,1.65
2023-05-09T16:11:41.794Z,2.38
2023-05-09T16:14:43.985Z,1.93
2023-05-09T16:17:46.242Z,2.58
2023-05-09T16:20:48.840Z,2.17
2023-05-09T16:23:51.168Z,1.83
2023-05-09T16:26:53.510Z,1.73
2023-05-09T16:29:55.578Z,2.75
2023-05-09T16:32:57.866Z,1.90
2023-05-09T16:36:00.239Z,1.52
2023-05-09T16:39:02.709Z,1.45
2023-05-09T16:42:06.080Z,1.53
2023-05-09T16:45:08.611Z,1.75
2023-05-09T16:48:13.008Z,2.00
2023-05-09T16:51:15.848Z,2.00
2023-05-09T16:54:18.121Z,3.05
2023-05-09T16:57:20.696Z,2.25
2023-05-09T17:00:23.811Z,2.03
2023-05-09T17:03:26.270Z,1.27
2023-05-09T17:06:28.607Z,2.53
2023-05-09T17:09:38.317Z,2.30
2023-05-09T17:12:40.992Z,2.13
2023-05-09T17:15:43.401Z,2.15
2023-05-09T17:18:48.983Z,1.73
2023-05-09T17:21:51.509Z,2.08
2023-05-09T17:24:54.622Z,2.67
2023-05-09T17:27:57.008Z,2.97
2023-05-09T17:30:59.654Z,3.17
2023-05-09T17:34:01.912Z,2.22
2023-05-09T17:37:05.911Z,1.75
2023-05-09T17:40:08.679Z,2.50
2023-05-09T17:43:21.808Z,2.50
2023-05-09T17:46:24.358Z,2.72
2023-05-09T17:49:28.022Z,2.45
2023-05-09T17:52:30.606Z,4.13
2023-05-09T17:55:32.665Z,2.35
2023-05-09T17:58:35.033Z,3.55
2023-05-09T18:01:37.727Z,2.58
2023-05-09T18:04:40.599Z,2.90
2023-05-09T18:07:44.592Z,3.28
2023-05-09T18:10:46.980Z,3.00
2023-05-09T18:13:49.145Z,4.10
2023-05-09T18:16:51.278Z,3.50
2023-05-09T18:19:53.654Z,3.05
2023-05-09T18:22:57.297Z,3.08
2023-05-09T18:25:59.542Z,2.75
2023-05-09T18:29:02.176Z,2.03
2023-05-09T18:32:05.624Z,3.33
2023-05-09T18:35:08.749Z,2.35
2023-05-09T18:38:11.229Z,3.63
2023-05-09T18:41:15.783Z,5.97
2023-05-09T18:44:18.037Z,4.88
2023-05-09T18:47:20.194Z,3.70
2023-05-09T18:50:22.363Z,4.45
2023-05-09T18:53:27.235Z,3.83
2023-05-09T18:56:29.590Z,4.82
2023-05-09T18:59:32.017Z,5.85
2023-05-09T19:02:34.403Z,3.88
2023-05-09T19:05:36.627Z,6.00
2023-05-09T19:08:39.513Z,6.03
2023-05-09T19:11:42.500Z,5.40
2023-05-09T19:14:44.886Z,3.90
2023-05-09T19:17:48.253Z,5.15
2023-05-09T19:20:50.595Z,4.78
2023-05-09T19:23:52.726Z,4.70
2023-05-09T19:26:54.894Z,4.50
2023-05-09T19:29:57.082Z,4.10
2023-05-09T19:32:59.384Z,3.70
2023-05-09T19:36:01.618Z,3.53
2023-05-09T19:39:05.508Z,4.32
2023-05-09T19:42:08.269Z,5.35
2023-05-09T19:45:11.195Z,4.60
2023-05-09T19:48:15.632Z,3.80
2023-05-09T19:51:17.953Z,4.53
2023-05-09T19:54:19.957Z,5.65
2023-05-09T19:57:22.916Z,3.70
2023-05-09T20:00:25.221Z,4.22
2023-05-09T20:03:27.644Z,4.53
2023-05-09T20:06:29.871Z,3.70
2023-05-09T20:09:32.962Z,5.38
2023-05-09T20:12:44.747Z,3.60
2023-05-09T20:15:48.000Z,4.45
2023-05-09T20:18:52.323Z,4.95
2023-05-09T20:24:56.993Z,5.32
2023-05-09T20:27:59.126Z,4.95
2023-05-09T20:31:01.386Z,3.25
2023-05-09T20:34:16.137Z,4.80
2023-05-09T20:37:18.226Z,6.88
2023-05-09T20:40:20.903Z,6.85
2023-05-09T20:43:23.218Z,4.63
2023-05-09T20:46:25.702Z,4.85
2023-05-09T20:49:27.719Z,5.10
2023-05-09T20:52:30.094Z,5.60
2023-05-09T20:55:32.148Z,4.60
2023-05-09T20:58:35.220Z,4.53
2023-05-09T21:01:39.773Z,4.50
2023-05-09T21:07:43.969Z,4.93
2023-05-09T21:10:46.221Z,5.95
2023-05-09T21:13:48.736Z,4.90
2023-05-09T21:16:51.852Z,6.13
2023-05-09T21:19:53.908Z,5.45
2023-05-09T21:22:56.175Z,5.30
2023-05-09T21:25:58.194Z,4.38
2023-05-09T21:29:00.184Z,5.15
2023-05-09T21:32:03.130Z,6.35
2023-05-09T21:35:10.602Z,5.25
2023-05-09T21:38:13.198Z,5.72
2023-05-09T21:41:15.347Z,5.20
2023-05-09T21:44:17.483Z,5.40
2023-05-09T21:47:20.235Z,5.13
2023-05-09T21:50:22.504Z,7.32
2023-05-09T21:53:25.607Z,5.20
2023-05-09T21:56:28.116Z,4.75
2023-05-09T21:59:30.506Z,8.85
2023-05-09T22:02:34.472Z,5.80
2023-05-09T22:05:36.671Z,5.43
2023-05-09T22:08:38.970Z,4.38
2023-05-09T22:11:41.163Z,4.07
2023-05-09T22:14:55.385Z,3.63
2023-05-09T22:17:59.820Z,4.57
2023-05-09T22:21:02.004Z,4.10
2023-05-09T22:24:04.413Z,3.80
2023-05-09T22:27:06.559Z,5.53
2023-05-09T22:30:09.377Z,4.03
2023-05-09T22:33:15.786Z,3.85
2023-05-09T22:36:19.071Z,3.08
2023-05-09T22:39:22.122Z,3.63
2023-05-09T22:42:24.212Z,3.92
2023-05-09T22:45:26.336Z,4.10
2023-05-09T22:48:28.743Z,4.28
2023-05-09T22:51:31.775Z,3.60
2023-05-09T22:55:11.535Z,4.90
2023-05-09T23:02:11.126Z,5.07
2023-05-09T23:05:32.827Z,3.70
2023-05-09T23:12:33.855Z,4.22
2023-05-09T23:15:36.335Z,4.32
2023-05-09T23:18:38.691Z,4.53
2023-05-09T23:21:41.274Z,3.58
2023-05-09T23:24:43.349Z,4.75
2023-05-09T23:27:46.981Z,4.00
2023-05-09T23:30:49.393Z,4.53
2023-05-09T23:33:52.963Z,5.25
2023-05-09T23:39:59.195Z,5.22
2023-05-09T23:43:02.238Z,4.43
2023-05-09T23:46:04.394Z,5.57
2023-05-09T23:49:07.408Z,4.72
2023-05-09T23:52:10.192Z,4.53
2023-05-09T23:55:12.294Z,6.03
2023-05-09T23:58:14.597Z,5.22
